createdAt,value
2018-09-28T00:02:02.353Z,11.27
2018-09-28T00:04:31.096Z,11.28
2018-09-28T00:06:59.699Z,11.30
2018-09-28T00:09:28.379Z,11.29
2018-09-28T00:11:57.297Z,11.26
2018-09-28T00:14:25.867Z,11.16
2018-09-28T00:16:54.412Z,11.21
2018-09-28T00:19:22.964Z,11.28
2018-09-28T00:21:51.652Z,11.28
2018-09-28T00:24:20.267Z,11.20
2018-09-28T00:26:49.439Z,11.14
2018-09-28T00:29:18.317Z,11.09
2018-09-28T00:31:46.881Z,10.97
2018-09-28T00:34:15.436Z,10.89
2018-09-28T00:36:44.204Z,10.87
2018-09-28T00:39:13.053Z,11.00
2018-09-28T00:41:41.669Z,11.04
2018-09-28T00:44:10.318Z,10.90
2018-09-28T00:46:38.884Z,10.55
2018-09-28T00:49:07.452Z,10.55
2018-09-28T00:51:36.032Z,10.49
2018-09-28T00:54:04.605Z,10.52
2018-09-28T00:56:33.416Z,10.50
2018-09-28T00:59:02.897Z,10.50
2018-09-28T01:01:31.452Z,10.55
2018-09-28T01:03:59.984Z,10.42
2018-09-28T01:06:28.703Z,10.40
2018-09-28T01:08:59.606Z,10.54
2018-09-28T01:11:28.852Z,10.54
2018-09-28T01:13:57.425Z,10.46
2018-09-28T01:16:26.204Z,10.61
2018-09-28T01:18:55.196Z,10.63
2018-09-28T01:21:23.944Z,10.60
2018-09-28T01:23:52.513Z,10.55
2018-09-28T01:26:21.063Z,10.56
2018-09-28T01:28:49.808Z,10.56
2018-09-28T01:31:18.372Z,10.49
2018-09-28T01:33:46.954Z,10.49
2018-09-28T01:36:15.731Z,10.42
2018-09-28T01:38:44.264Z,10.43
2018-09-28T01:41:12.804Z,10.49
2018-09-28T01:43:41.389Z,10.47
2018-09-28T01:46:10.088Z,10.45
2018-09-28T01:48:38.861Z,10.45
2018-09-28T01:51:07.431Z,10.43
2018-09-28T01:53:36.175Z,10.50
2018-09-28T01:56:04.723Z,10.29
2018-09-28T01:58:33.239Z,10.24
2018-09-28T02:01:01.884Z,10.20
2018-09-28T02:03:30.393Z,10.17
2018-09-28T02:05:58.919Z,10.20
2018-09-28T02:08:27.452Z,10.11
2018-09-28T02:10:55.987Z,10.15
2018-09-28T02:13:24.528Z,10.07
2018-09-28T02:15:53.182Z,10.06
2018-09-28T02:18:21.665Z,10.09
2018-09-28T02:20:50.215Z,10.15
2018-09-28T02:23:18.772Z,10.07
2018-09-28T02:25:47.290Z,10.05
2018-09-28T02:28:15.829Z,10.10
2018-09-28T02:30:44.461Z,10.07
2018-09-28T02:33:13.032Z,10.12
2018-09-28T02:35:41.567Z,10.05
2018-09-28T02:38:10.116Z,10.08
2018-09-28T02:40:38.663Z,10.12
2018-09-28T02:43:07.193Z,10.14
2018-09-28T02:45:35.740Z,10.09
2018-09-28T02:48:04.310Z,10.05
2018-09-28T02:50:32.884Z,10.07
2018-09-28T02:53:01.422Z,10.08
2018-09-28T02:55:29.968Z,10.04
2018-09-28T02:57:58.505Z,9.99
2018-09-28T03:00:27.048Z,10.03
2018-09-28T03:02:55.576Z,10.02
2018-09-28T03:05:24.149Z,10.03
2018-09-28T03:07:52.675Z,9.90
2018-09-28T03:10:21.202Z,9.98
2018-09-28T03:12:49.747Z,9.90
2018-09-28T03:15:18.264Z,9.89
2018-09-28T03:17:46.800Z,9.96
2018-09-28T03:20:15.926Z,9.88
2018-09-28T03:22:44.479Z,9.91
2018-09-28T03:25:13.028Z,9.87
2018-09-28T03:27:41.552Z,9.84
2018-09-28T03:30:10.096Z,9.93
2018-09-28T03:32:38.663Z,9.97
2018-09-28T03:35:07.227Z,9.96
2018-09-28T03:37:35.769Z,9.95
2018-09-28T03:40:04.300Z,9.91
2018-09-28T03:42:32.864Z,9.83
2018-09-28T03:45:01.384Z,9.80
2018-09-28T03:47:29.998Z,9.69
2018-09-28T03:49:58.912Z,9.70
2018-09-28T03:52:27.480Z,9.68
2018-09-28T03:54:56.039Z,9.78
2018-09-28T03:57:24.595Z,9.75
2018-09-28T03:59:53.186Z,9.72
2018-09-28T04:02:22.457Z,9.70
2018-09-28T04:04:51.020Z,9.70
2018-09-28T04:07:19.595Z,9.73
2018-09-28T04:09:48.132Z,9.73
2018-09-28T04:12:16.672Z,9.66
2018-09-28T04:14:45.184Z,9.61
2018-09-28T04:17:13.776Z,9.65
2018-09-28T04:19:42.295Z,9.65
2018-09-28T04:22:10.832Z,9.62
2018-09-28T04:24:39.351Z,9.63
2018-09-28T04:27:07.972Z,9.55
2018-09-28T04:29:36.712Z,9.56
2018-09-28T04:32:05.359Z,9.53
2018-09-28T04:34:33.885Z,9.50
2018-09-28T04:37:02.409Z,9.55
2018-09-28T04:39:30.944Z,9.54
2018-09-28T04:41:59.465Z,9.50
2018-09-28T04:47:18.331Z,9.42
2018-09-28T04:49:46.871Z,9.42
2018-09-28T04:52:15.436Z,9.41
2018-09-28T04:54:43.975Z,9.38
2018-09-28T04:57:12.595Z,9.40
2018-09-28T04:59:41.226Z,9.42
2018-09-28T05:04:59.699Z,9.33
2018-09-28T05:07:28.247Z,9.33
2018-09-28T05:09:56.771Z,9.33
2018-09-28T05:12:25.311Z,9.32
2018-09-28T05:14:53.848Z,9.26
2018-09-28T05:17:22.417Z,9.32
2018-09-28T05:19:50.936Z,9.36
2018-09-28T05:22:19.464Z,9.33
2018-09-28T05:24:50.012Z,9.33
2018-09-28T05:27:18.636Z,9.26
2018-09-28T05:29:47.160Z,9.27
2018-09-28T05:32:15.786Z,9.20
2018-09-28T05:34:44.268Z,9.26
2018-09-28T05:37:12.934Z,9.22
2018-09-28T05:39:41.433Z,9.22
2018-09-28T05:42:09.960Z,9.25
2018-09-28T05:44:38.497Z,9.21
2018-09-28T05:47:07.055Z,9.27
2018-09-28T05:49:35.581Z,9.34
2018-09-28T05:52:04.112Z,9.33
2018-09-28T05:54:32.723Z,9.36
2018-09-28T05:57:01.260Z,9.42
2018-09-28T05:59:34.897Z,9.44
2018-09-28T06:02:08.819Z,9.49
2018-09-28T06:04:42.595Z,9.50
2018-09-28T06:07:11.159Z,9.46
2018-09-28T06:09:39.724Z,9.41
2018-09-28T06:12:08.259Z,9.47
2018-09-28T06:14:36.806Z,9.41
2018-09-28T06:17:05.539Z,9.45
2018-09-28T06:19:34.079Z,9.48
2018-09-28T06:22:02.616Z,9.53
2018-09-28T06:24:31.178Z,9.58
2018-09-28T06:26:59.684Z,9.68
2018-09-28T06:29:28.264Z,9.75
2018-09-28T06:31:56.793Z,9.73
2018-09-28T06:34:25.432Z,9.72
2018-09-28T06:36:54.041Z,9.67
2018-09-28T06:39:22.632Z,9.81
2018-09-28T06:41:51.324Z,10.08
2018-09-28T06:44:19.803Z,10.13
2018-09-28T06:46:48.347Z,10.34
2018-09-28T06:49:16.905Z,10.58
2018-09-28T06:51:45.440Z,10.65
2018-09-28T06:54:14.065Z,10.84
2018-09-28T06:56:42.547Z,11.25
2018-09-28T06:59:11.111Z,11.49
2018-09-28T07:01:39.659Z,11.80
2018-09-28T07:04:08.370Z,11.93
2018-09-28T07:06:36.859Z,12.04
2018-09-28T07:09:08.005Z,12.29
2018-09-28T07:11:36.555Z,12.61
2018-09-28T07:14:05.128Z,12.70
2018-09-28T07:16:33.669Z,12.91
2018-09-28T07:21:54.460Z,13.24
2018-09-28T07:24:23.104Z,13.51
2018-09-28T07:26:51.600Z,13.64
2018-09-28T07:29:20.136Z,13.87
2018-09-28T07:31:48.815Z,14.06
2018-09-28T07:34:17.336Z,14.16
2018-09-28T07:36:45.939Z,14.47
2018-09-28T07:39:14.478Z,14.58
2018-09-28T07:41:43.055Z,14.71
2018-09-28T07:44:11.580Z,14.80
2018-09-28T07:46:40.125Z,14.98
2018-09-28T07:49:08.715Z,15.17
2018-09-28T07:51:37.221Z,15.25
2018-09-28T07:54:05.762Z,15.32
2018-09-28T07:56:34.294Z,15.63
2018-09-28T07:59:03.023Z,15.85
2018-09-28T08:01:31.547Z,15.96
2018-09-28T08:04:00.085Z,16.06
2018-09-28T08:06:28.649Z,16.44
2018-09-28T08:08:57.208Z,16.58
2018-09-28T08:11:25.752Z,16.62
2018-09-28T08:13:54.330Z,16.84
2018-09-28T08:16:22.879Z,16.83
2018-09-28T08:18:51.412Z,16.74
2018-09-28T08:21:30.324Z,16.79
2018-09-28T08:23:58.932Z,16.94
2018-09-28T08:26:27.483Z,16.79
2018-09-28T08:28:56.124Z,16.92
2018-09-28T08:31:24.727Z,17.00
2018-09-28T08:33:53.250Z,16.88
2018-09-28T08:36:21.850Z,17.19
2018-09-28T08:38:50.355Z,17.41
2018-09-28T08:41:18.932Z,17.41
2018-09-28T08:43:47.535Z,17.49
2018-09-28T08:46:16.006Z,17.57
2018-09-28T08:48:44.563Z,17.66
2018-09-28T08:51:13.174Z,17.66
2018-09-28T08:53:41.781Z,17.83
2018-09-28T08:56:11.288Z,17.72
2018-09-28T08:58:39.826Z,17.61
2018-09-28T09:03:58.251Z,18.16
2018-09-28T09:06:26.895Z,18.21
2018-09-28T09:08:55.452Z,18.49
2018-09-28T09:11:23.977Z,18.68
2018-09-28T09:13:52.563Z,18.86
2018-09-28T09:16:21.108Z,18.68
2018-09-28T09:18:49.624Z,18.84
2018-09-28T09:21:18.176Z,18.86
2018-09-28T09:23:46.740Z,18.87
2018-09-28T09:26:15.306Z,18.96
2018-09-28T09:28:43.837Z,19.11
2018-09-28T09:31:12.388Z,19.22
2018-09-28T09:33:40.955Z,19.33
2018-09-28T09:36:09.507Z,20.06
2018-09-28T09:38:38.051Z,19.83
2018-09-28T09:41:07.069Z,20.55
2018-09-28T09:43:35.637Z,20.50
2018-09-28T09:46:04.193Z,20.86
2018-09-28T09:48:32.723Z,21.05
2018-09-28T09:51:01.331Z,21.44
2018-09-28T09:53:29.880Z,21.86
2018-09-28T09:55:58.457Z,22.35
2018-09-28T09:58:27.008Z,21.83
2018-09-28T10:01:00.628Z,21.84
2018-09-28T10:03:34.492Z,21.73
2018-09-28T10:06:03.888Z,21.75
2018-09-28T10:08:32.436Z,21.68
2018-09-28T10:11:01.035Z,21.66
2018-09-28T10:13:29.628Z,21.97
2018-09-28T10:15:58.255Z,22.25
2018-09-28T10:18:26.778Z,21.95
2018-09-28T10:20:55.348Z,21.88
2018-09-28T10:23:23.871Z,22.29
2018-09-28T10:25:52.549Z,22.30
2018-09-28T10:28:21.217Z,22.06
2018-09-28T10:30:49.991Z,21.45
2018-09-28T10:33:18.528Z,21.25
2018-09-28T10:35:47.358Z,21.63
2018-09-28T10:38:17.492Z,21.78
2018-09-28T10:40:46.158Z,21.95
2018-09-28T10:43:14.684Z,21.61
2018-09-28T10:45:43.318Z,21.59
2018-09-28T10:48:11.836Z,21.54
2018-09-28T10:50:40.404Z,21.91
2018-09-28T10:55:59.273Z,22.17
2018-09-28T10:58:27.915Z,21.82
2018-09-28T11:00:56.448Z,21.71
2018-09-28T11:03:25.084Z,21.69
2018-09-28T11:05:53.656Z,21.93
2018-09-28T11:08:22.440Z,22.07
2018-09-28T11:10:51.084Z,22.32
2018-09-28T11:13:19.599Z,22.22
2018-09-28T11:15:48.215Z,21.69
2018-09-28T11:18:16.742Z,21.55
2018-09-28T11:20:45.305Z,21.71
2018-09-28T11:23:13.868Z,22.13
2018-09-28T11:25:42.417Z,22.14
2018-09-28T11:28:10.988Z,22.15
2018-09-28T11:30:39.524Z,22.02
2018-09-28T11:33:08.117Z,21.90
2018-09-28T11:35:36.621Z,22.09
2018-09-28T11:38:05.185Z,22.16
2018-09-28T11:40:42.080Z,22.43
2018-09-28T11:43:10.652Z,22.15
2018-09-28T11:45:39.300Z,21.96
2018-09-28T11:48:07.871Z,21.89
2018-09-28T11:50:36.451Z,21.83
2018-09-28T11:53:05.038Z,22.09
2018-09-28T11:55:33.608Z,21.81
2018-09-28T11:58:02.179Z,22.05
2018-09-28T12:00:30.745Z,22.41
2018-09-28T12:02:59.296Z,22.47
2018-09-28T12:05:27.863Z,22.45
2018-09-28T12:07:56.431Z,22.59
2018-09-28T12:10:24.964Z,22.60
2018-09-28T12:12:53.517Z,22.19
2018-09-28T12:15:22.166Z,22.36
2018-09-28T12:17:50.676Z,22.14
2018-09-28T12:20:19.274Z,22.46
2018-09-28T12:22:47.812Z,22.29
2018-09-28T12:25:16.497Z,22.74
2018-09-28T12:27:45.203Z,22.78
2018-09-28T12:30:13.715Z,23.08
2018-09-28T12:32:42.294Z,23.03
2018-09-28T12:35:10.829Z,22.57
2018-09-28T12:37:39.384Z,22.41
2018-09-28T12:40:08.045Z,22.47
2018-09-28T12:42:36.745Z,22.58
2018-09-28T12:45:05.419Z,22.83
2018-09-28T12:47:33.897Z,22.98
2018-09-28T12:50:02.476Z,23.28
2018-09-28T12:52:37.975Z,22.79
2018-09-28T12:55:06.560Z,22.83
2018-09-28T12:57:35.089Z,22.68
2018-09-28T13:00:03.691Z,22.63
2018-09-28T13:02:32.288Z,22.81
2018-09-28T13:05:00.899Z,23.03
2018-09-28T13:07:29.456Z,23.32
2018-09-28T13:09:58.012Z,22.95
2018-09-28T13:12:26.663Z,22.80
2018-09-28T13:14:55.272Z,23.01
2018-09-28T13:17:23.755Z,23.14
2018-09-28T13:19:52.283Z,23.28
2018-09-28T13:22:20.864Z,23.27
2018-09-28T13:24:49.453Z,23.57
2018-09-28T13:27:17.994Z,23.62
2018-09-28T13:29:46.559Z,23.81
2018-09-28T13:32:15.171Z,23.62
2018-09-28T13:34:43.751Z,23.30
2018-09-28T13:37:12.333Z,23.31
2018-09-28T13:39:40.927Z,23.32
2018-09-28T13:42:09.521Z,23.22
2018-09-28T13:44:38.055Z,23.35
2018-09-28T13:47:06.959Z,22.56
2018-09-28T13:49:35.568Z,22.75
2018-09-28T13:52:04.306Z,22.89
2018-09-28T13:54:32.946Z,23.10
2018-09-28T13:57:01.450Z,23.00
2018-09-28T13:59:30.016Z,22.63
2018-09-28T14:01:58.635Z,22.63
2018-09-28T14:04:28.114Z,22.76
2018-09-28T14:06:56.705Z,22.95
2018-09-28T14:09:25.144Z,23.03
2018-09-28T14:11:53.729Z,22.91
2018-09-28T14:14:22.305Z,22.62
2018-09-28T14:16:50.937Z,22.78
2018-09-28T14:19:19.476Z,22.86
2018-09-28T14:21:48.024Z,22.63
2018-09-28T14:24:16.800Z,22.79
2018-09-28T14:26:45.392Z,22.95
2018-09-28T14:29:13.933Z,23.14
2018-09-28T14:31:42.551Z,23.18
2018-09-28T14:34:11.201Z,23.25
2018-09-28T14:36:39.762Z,23.21
2018-09-28T14:39:09.700Z,22.94
2018-09-28T14:41:38.249Z,22.67
2018-09-28T14:44:07.156Z,22.86
2018-09-28T14:46:35.808Z,22.95
2018-09-28T14:49:04.381Z,22.89
2018-09-28T14:51:33.508Z,22.80
2018-09-28T14:54:02.143Z,22.74
2018-09-28T14:56:30.818Z,22.61
2018-09-28T14:58:59.408Z,22.03
2018-09-28T15:01:28.147Z,22.38
2018-09-28T15:03:56.595Z,22.02
2018-09-28T15:06:25.215Z,22.27
2018-09-28T15:08:53.732Z,21.84
2018-09-28T15:11:22.371Z,21.98
2018-09-28T15:13:50.939Z,21.94
2018-09-28T15:16:19.557Z,21.92
2018-09-28T15:18:48.134Z,22.13
2018-09-28T15:21:16.652Z,22.02
2018-09-28T15:23:45.925Z,22.13
2018-09-28T15:26:14.485Z,22.15
2018-09-28T15:28:43.028Z,21.90
2018-09-28T15:31:11.632Z,22.08
2018-09-28T15:33:40.160Z,22.21
2018-09-28T15:36:08.773Z,22.29
2018-09-28T15:38:37.552Z,22.12
2018-09-28T15:41:06.096Z,22.14
2018-09-28T15:43:34.627Z,22.01
2018-09-28T15:46:03.194Z,21.96
2018-09-28T15:48:31.808Z,21.83
2018-09-28T15:51:00.357Z,21.94
2018-09-28T15:53:29.096Z,21.95
2018-09-28T15:55:57.667Z,21.48
2018-09-28T15:58:26.188Z,21.63
2018-09-28T16:00:54.739Z,21.62
2018-09-28T16:03:23.299Z,21.66
2018-09-28T16:05:52.644Z,21.60
2018-09-28T16:08:21.204Z,21.55
2018-09-28T16:10:49.737Z,21.44
2018-09-28T16:13:18.308Z,21.21
2018-09-28T16:15:46.879Z,21.24
2018-09-28T16:39:36.332Z,19.92
2018-09-28T16:42:05.015Z,19.63
2018-09-28T16:44:33.626Z,19.68
2018-09-28T16:47:02.154Z,19.73
2018-09-28T16:49:30.712Z,19.64
2018-09-28T16:51:59.276Z,19.64
2018-09-28T16:54:27.819Z,19.69
2018-09-28T16:56:56.551Z,19.57
2018-09-28T16:59:25.617Z,19.51
2018-09-28T17:01:54.236Z,19.44
2018-09-28T17:04:22.793Z,19.23
2018-09-28T17:06:51.328Z,19.11
2018-09-28T17:09:19.942Z,19.17
2018-09-28T17:11:48.431Z,19.08
2018-09-28T17:14:17.001Z,18.86
2018-09-28T17:16:45.558Z,18.72
2018-09-28T17:19:14.094Z,18.77
2018-09-28T17:21:42.668Z,18.77
2018-09-28T17:24:11.211Z,18.81
2018-09-28T17:26:39.744Z,18.65
2018-09-28T17:29:08.329Z,18.48
2018-09-28T17:31:37.051Z,18.36
2018-09-28T17:34:05.593Z,18.17
2018-09-28T17:36:34.253Z,18.21
2018-09-28T17:39:02.894Z,18.17
2018-09-28T17:41:31.448Z,18.06
2018-09-28T17:44:00.065Z,18.08
2018-09-28T17:46:28.640Z,17.95
2018-09-28T17:48:57.172Z,18.04
2018-09-28T17:51:25.728Z,18.12
2018-09-28T17:53:54.308Z,18.20
2018-09-28T17:56:22.879Z,17.95
2018-09-28T17:58:51.481Z,17.89
2018-09-28T18:01:20.019Z,17.51
2018-09-28T18:03:48.584Z,17.06
2018-09-28T18:06:17.580Z,16.83
2018-09-28T18:08:46.141Z,16.66
2018-09-28T18:11:14.891Z,16.66
2018-09-28T18:13:43.460Z,16.60
2018-09-28T18:16:12.084Z,16.59
2018-09-28T18:18:40.639Z,16.74
2018-09-28T18:21:09.442Z,16.77
2018-09-28T18:23:38.100Z,16.74
2018-09-28T18:26:06.805Z,16.76
2018-09-28T18:28:35.375Z,16.63
2018-09-28T18:31:04.061Z,16.74
2018-09-28T18:33:32.807Z,16.76
2018-09-28T18:36:01.350Z,16.83
2018-09-28T18:38:29.887Z,16.76
2018-09-28T18:40:58.436Z,16.74
2018-09-28T18:43:27.032Z,16.88
2018-09-28T18:45:55.556Z,16.83
2018-09-28T18:48:24.087Z,16.84
2018-09-28T18:50:52.635Z,16.74
2018-09-28T18:53:21.189Z,16.73
2018-09-28T18:55:49.745Z,16.74
2018-09-28T18:58:18.321Z,16.78
2018-09-28T19:00:47.005Z,16.82
2018-09-28T19:03:15.611Z,17.00
2018-09-28T19:05:44.159Z,17.07
2018-09-28T19:08:12.724Z,17.14
2018-09-28T19:10:41.272Z,17.22
2018-09-28T19:13:09.984Z,17.37
2018-09-28T19:15:38.451Z,17.28
2018-09-28T19:18:07.000Z,17.20
2018-09-28T19:20:35.544Z,17.22
2018-09-28T19:23:04.088Z,17.14
2018-09-28T19:25:32.631Z,17.15
2018-09-28T19:28:01.172Z,17.20
2018-09-28T19:30:29.728Z,17.02
2018-09-28T19:32:58.258Z,17.24
2018-09-28T19:35:26.814Z,17.13
2018-09-28T19:37:55.383Z,17.28
2018-09-28T19:40:23.973Z,17.43
2018-09-28T19:42:52.787Z,17.31
2018-09-28T19:45:21.311Z,17.38
2018-09-28T19:47:49.889Z,17.33
2018-09-28T19:50:18.422Z,17.29
2018-09-28T19:52:46.988Z,17.12
2018-09-28T19:55:15.560Z,17.24
2018-09-28T19:57:44.149Z,17.01
2018-09-28T20:00:12.725Z,16.95
2018-09-28T20:02:42.085Z,16.93
2018-09-28T20:05:10.624Z,16.92
2018-09-28T20:07:39.284Z,16.85
2018-09-28T20:10:07.930Z,16.69
2018-09-28T20:12:36.534Z,16.55
2018-09-28T20:15:05.124Z,16.46
2018-09-28T20:17:33.677Z,16.66
2018-09-28T20:20:02.314Z,16.30
2018-09-28T20:22:30.861Z,16.40
2018-09-28T20:24:59.461Z,16.33
2018-09-28T20:27:28.073Z,16.33
2018-09-28T20:29:56.880Z,16.27
2018-09-28T20:32:25.464Z,16.25
2018-09-28T20:34:54.097Z,16.24
2018-09-28T20:37:22.760Z,16.25
2018-09-28T20:39:51.377Z,16.22
2018-09-28T20:42:20.056Z,15.97
2018-09-28T20:44:48.632Z,15.97
2018-09-28T20:47:17.201Z,15.96
2018-09-28T20:49:45.789Z,15.99
2018-09-28T20:52:14.342Z,15.70
2018-09-28T20:54:42.888Z,15.63
2018-09-28T20:57:11.478Z,15.64
2018-09-28T20:59:40.144Z,15.46
2018-09-28T21:02:08.760Z,15.30
2018-09-28T21:04:37.364Z,15.25
2018-09-28T21:07:05.925Z,15.19
2018-09-28T21:09:34.490Z,15.26
2018-09-28T21:12:03.020Z,15.20
2018-09-28T21:14:37.824Z,15.23
2018-09-28T21:17:06.572Z,15.06
2018-09-28T21:19:35.142Z,14.97
2018-09-28T21:22:03.783Z,14.97
2018-09-28T21:24:32.391Z,14.98
2018-09-28T21:27:00.959Z,14.87
2018-09-28T21:29:29.588Z,14.73
2018-09-28T21:31:58.127Z,14.65
2018-09-28T21:34:26.656Z,14.62
2018-09-28T21:36:55.234Z,14.69
2018-09-28T21:39:23.759Z,14.54
2018-09-28T21:41:52.340Z,14.40
2018-09-28T21:44:20.911Z,14.35
2018-09-28T21:46:49.484Z,14.31
2018-09-28T21:49:18.022Z,14.36
2018-09-28T21:51:46.539Z,14.17
2018-09-28T21:54:15.118Z,14.03
2018-09-28T21:56:43.673Z,14.01
2018-09-28T21:59:12.205Z,13.92
2018-09-28T22:01:40.752Z,13.89
2018-09-28T22:04:09.288Z,13.84
2018-09-28T22:06:37.828Z,13.82
2018-09-28T22:09:07.562Z,13.76
2018-09-28T22:11:36.113Z,13.70
2018-09-28T22:14:04.777Z,13.54
2018-09-28T22:16:33.368Z,13.44
2018-09-28T23:10:50.234Z,13.47
2018-09-28T23:13:18.797Z,13.26
2018-09-28T23:15:47.419Z,13.36
2018-09-28T23:18:15.964Z,13.46
2018-09-28T23:20:44.511Z,13.27
2018-09-28T23:23:13.183Z,13.18
2018-09-28T23:25:41.745Z,13.31
2018-09-28T23:28:10.301Z,13.35
2018-09-28T23:30:38.827Z,13.35
2018-09-28T23:33:07.395Z,13.12
2018-09-28T23:35:35.940Z,13.01
2018-09-28T23:38:04.481Z,13.01
2018-09-28T23:40:33.029Z,12.77
2018-09-28T23:43:01.580Z,12.77
2018-09-28T23:45:30.126Z,12.89
2018-09-28T23:47:58.664Z,12.91
2018-09-28T23:50:27.244Z,12.89
2018-09-28T23:52:55.799Z,12.69
2018-09-28T23:55:24.381Z,12.85
2018-09-28T23:57:52.908Z,12.93
